Time;durP1;ratioP1;P1;durP2;ratioP2;P2;SDS_P1;SDS_P2;PMS_P1;PMS_P2;Temp;Humidity;BMP_temperature;BMP_pressure;BME280_temperature;BME280_humidity;BME280_pressure;Samples;Min_cycle;Max_cycle;Signal;HPM_P1;HPM_P2
2021/07/21 00:02:03;;;;;;;15.57;12.38;;;;;;;15.44;96.18;102124.91;5215986;28;20503;-67
2021/07/21 00:04:34;;;;;;;15.10;11.35;;;;;;;15.33;96.31;102121.38;5214254;28;20103;-67
2021/07/21 00:07:06;;;;;;;17.60;12.75;;;;;;;15.16;97.68;102121.16;5215242;28;20171;-67
2021/07/21 00:09:37;;;;;;;16.27;12.23;;;;;;;15.16;97.40;102119.34;5214570;28;20060;-67
2021/07/21 00:14:59;;;;;;;18.42;12.93;;;;;;;14.99;97.61;102115.44;5215149;28;20025;-67
2021/07/21 00:17:33;;;;;;;18.30;13.13;;;;;;;14.95;98.17;102129.03;5214091;28;20360;-67
2021/07/21 00:20:09;;;;;;;18.25;13.10;;;;;;;14.97;98.35;102122.69;5215557;28;20115;-67
2021/07/21 00:22:45;;;;;;;20.50;12.82;;;;;;;14.92;98.65;102124.00;5214751;28;20119;-67
2021/07/21 00:25:19;;;;;;;16.17;12.65;;;;;;;14.90;98.45;102124.16;5213324;28;20026;-67
2021/07/21 00:27:51;;;;;;;15.45;13.07;;;;;;;14.84;99.12;102128.09;5216894;28;20034;-67
2021/07/21 00:30:22;;;;;;;23.23;14.63;;;;;;;14.83;98.40;102125.59;5215438;28;20484;-67
2021/07/21 00:32:55;;;;;;;17.60;12.88;;;;;;;14.84;98.69;102122.84;5217136;28;20673;-67
2021/07/21 00:35:26;;;;;;;16.73;13.02;;;;;;;14.74;99.66;102121.94;5218691;28;20038;-67
2021/07/21 00:37:57;;;;;;;18.25;13.70;;;;;;;14.71;99.26;102121.34;5219112;28;20175;-67
2021/07/21 00:40:30;;;;;;;17.65;12.63;;;;;;;14.64;99.63;102113.09;5218154;28;20037;-67
2021/07/21 00:43:02;;;;;;;19.10;13.82;;;;;;;14.66;100.00;102112.97;5218502;28;20036;-67
2021/07/21 00:45:33;;;;;;;23.92;13.68;;;;;;;14.65;100.00;102104.22;5216833;28;20041;-67
2021/07/21 00:48:05;;;;;;;18.15;13.35;;;;;;;14.59;100.00;102121.38;5217828;28;20143;-67
2021/07/21 00:50:36;;;;;;;17.25;13.30;;;;;;;14.58;100.00;102119.72;5219401;28;20105;-67
2021/07/21 00:53:08;;;;;;;19.85;13.60;;;;;;;14.50;100.00;102119.47;5209966;28;20049;-67
2021/07/21 00:55:39;;;;;;;16.27;12.63;;;;;;;14.48;100.00;102115.28;5218466;28;20017;-67
2021/07/21 00:58:10;;;;;;;17.63;13.27;;;;;;;14.39;100.00;102116.00;5219951;28;20523;-67
2021/07/21 01:00:42;;;;;;;18.75;13.27;;;;;;;14.39;100.00;102111.56;5219464;28;20101;-67
2021/07/21 01:03:13;;;;;;;20.85;13.70;;;;;;;14.40;100.00;102115.06;5219532;28;20231;-67
2021/07/21 01:05:45;;;;;;;18.05;12.70;;;;;;;14.39;100.00;102119.47;5218233;28;20055;-67
2021/07/21 01:08:16;;;;;;;16.15;12.95;;;;;;;14.39;100.00;102122.13;5218175;28;20025;-67
2021/07/21 01:10:53;;;;;;;18.92;13.05;;;;;;;14.36;100.00;102120.59;5218131;28;20030;-67
2021/07/21 01:13:29;;;;;;;17.35;13.68;;;;;;;14.27;100.00;102120.47;5218093;28;20033;-67
2021/07/21 01:16:10;;;;;;;16.70;13.32;;;;;;;14.33;100.00;102122.63;5216765;28;20028;-67
2021/07/21 01:19:06;;;;;;;18.33;12.43;;;;;;;14.32;100.00;102121.78;5218106;28;20069;-67
2021/07/21 01:21:59;;;;;;;17.02;12.93;;;;;;;14.35;100.00;102116.25;5186583;28;20411;-67
2021/07/21 01:25:04;;;;;;;19.00;12.65;;;;;;;14.34;100.00;102119.03;5218053;28;20037;-67
2021/07/21 01:27:41;;;;;;;16.08;11.70;;;;;;;14.26;100.00;102122.28;5218458;28;20064;-67
2021/07/21 01:30:16;;;;;;;17.83;12.90;;;;;;;14.12;100.00;102119.91;5217921;28;20112;-67
2021/07/21 01:32:53;;;;;;;17.20;11.57;;;;;;;14.11;100.00;102121.69;5215513;28;20304;-67
2021/07/21 01:35:32;;;;;;;15.90;12.20;;;;;;;14.10;100.00;102121.84;5217226;28;20030;-67
2021/07/21 01:38:14;;;;;;;17.23;12.57;;;;;;;14.09;100.00;102121.00;5216079;28;20407;-66
2021/07/21 01:40:48;;;;;;;16.88;11.70;;;;;;;13.96;100.00;102122.06;5216292;28;20316;-67
2021/07/21 01:43:22;;;;;;;16.63;12.43;;;;;;;13.99;100.00;102127.13;5209543;28;20030;-67
2021/07/21 01:45:57;;;;;;;15.55;13.02;;;;;;;13.96;100.00;102124.72;5216173;28;20036;-67
2021/07/21 01:48:32;;;;;;;15.75;10.57;;;;;;;13.88;100.00;102125.31;5217315;28;20434;-67
2021/07/21 01:51:07;;;;;;;19.35;12.32;;;;;;;13.90;100.00;102130.44;5216912;28;20514;-67
2021/07/21 01:53:39;;;;;;;19.80;11.40;;;;;;;13.84;100.00;102119.44;5215738;28;20116;-67
2021/07/21 01:56:12;;;;;;;17.53;12.07;;;;;;;13.85;100.00;102118.47;5219123;28;20372;-67
2021/07/21 01:58:44;;;;;;;14.80;12.23;;;;;;;13.74;100.00;102117.66;5218916;28;20021;-67
2021/07/21 02:01:16;;;;;;;16.73;12.07;;;;;;;13.71;100.00;102120.50;5215360;28;20293;-67
2021/07/21 02:03:48;;;;;;;15.40;11.65;;;;;;;13.77;100.00;102133.22;5216563;28;20017;-67
2021/07/21 02:06:20;;;;;;;15.43;11.38;;;;;;;13.78;100.00;102129.63;5216775;28;20034;-67
2021/07/21 02:08:55;;;;;;;13.18;11.32;;;;;;;13.79;100.00;102126.88;5218539;28;20030;-67
2021/07/21 02:11:28;;;;;;;17.95;11.80;;;;;;;13.67;100.00;102135.72;5216932;28;20087;-67
2021/07/21 02:14:01;;;;;;;16.42;11.85;;;;;;;13.68;100.00;102131.31;5217149;28;20037;-67
2021/07/21 02:16:35;;;;;;;17.85;11.85;;;;;;;13.69;100.00;102130.34;5217518;28;20034;-66
2021/07/21 02:19:08;;;;;;;16.42;12.38;;;;;;;13.59;100.00;102140.72;5217506;28;20029;-67
2021/07/21 02:21:40;;;;;;;16.27;11.85;;;;;;;13.51;100.00;102130.78;5215268;28;20141;-67
2021/07/21 02:24:12;;;;;;;16.02;12.38;;;;;;;13.60;100.00;102142.44;5214079;28;20108;-67
2021/07/21 02:26:44;;;;;;;19.17;12.95;;;;;;;13.52;100.00;102143.00;5217089;28;20510;-67
2021/07/21 02:29:16;;;;;;;16.70;12.60;;;;;;;13.48;100.00;102135.44;5217422;28;21803;-67
2021/07/21 02:31:57;;;;;;;16.45;12.40;;;;;;;13.52;100.00;102142.16;5215218;28;20140;-67
2021/07/21 02:34:29;;;;;;;14.90;11.73;;;;;;;13.43;100.00;102141.06;5216114;28;20136;-67
2021/07/21 02:37:02;;;;;;;16.08;11.27;;;;;;;13.41;100.00;102137.75;5217861;28;20300;-67
2021/07/21 02:39:34;;;;;;;17.05;11.30;;;;;;;13.39;100.00;102137.00;5213175;28;20053;-67
2021/07/21 02:42:05;;;;;;;16.02;11.40;;;;;;;13.33;100.00;102134.81;5215825;28;20045;-67
2021/07/21 02:44:36;;;;;;;14.60;11.18;;;;;;;13.30;100.00;102142.97;5216531;28;20475;-67
2021/07/21 02:47:08;;;;;;;18.08;11.88;;;;;;;13.28;100.00;102126.44;5218818;28;20303;-67
2021/07/21 02:49:44;;;;;;;15.93;11.10;;;;;;;13.27;100.00;102122.97;5214611;28;20030;-69
2021/07/21 02:52:28;;;;;;;13.82;11.13;;;;;;;13.20;100.00;102132.25;5217799;28;20371;-69
2021/07/21 02:55:12;;;;;;;17.42;12.13;;;;;;;13.34;100.00;102131.25;5211511;28;20045;-67
2021/07/21 02:57:59;;;;;;;;;;;;;;;13.54;100.00;102127.94;5219467;28;20085;-66
2021/07/21 03:00:32;;;;;;;14.55;10.63;;;;;;;13.27;100.00;102136.16;5215403;28;20361;-67
2021/07/21 03:03:08;;;;;;;15.13;12.00;;;;;;;13.24;100.00;102130.28;5217173;28;20084;-67
2021/07/21 03:05:40;;;;;;;16.25;11.27;;;;;;;13.25;100.00;102143.31;5214292;28;20025;-67
2021/07/21 03:08:16;;;;;;;18.40;11.95;;;;;;;13.18;100.00;102139.41;5217831;28;20077;-67
2021/07/21 03:10:47;;;;;;;15.23;11.60;;;;;;;13.16;100.00;102146.59;5215402;28;20346;-67
2021/07/21 03:13:23;;;;;;;16.58;11.32;;;;;;;13.17;100.00;102150.91;5216137;28;20037;-69
2021/07/21 03:15:55;;;;;;;15.38;11.05;;;;;;;13.09;100.00;102148.00;5215319;28;20030;-69
2021/07/21 03:18:30;;;;;;;16.33;12.40;;;;;;;12.98;100.00;102127.75;5215750;28;20036;-69
2021/07/21 03:21:02;;;;;;;17.23;11.35;;;;;;;13.03;100.00;102146.69;5215433;28;20052;-69
2021/07/21 03:23:36;;;;;;;14.30;12.00;;;;;;;13.05;100.00;102143.94;5215485;28;20237;-67
2021/07/21 03:26:07;;;;;;;16.17;11.57;;;;;;;13.02;100.00;102144.16;5216253;28;20068;-67
2021/07/21 03:28:39;;;;;;;15.95;11.98;;;;;;;13.04;100.00;102150.16;5216001;28;20030;-67
2021/07/21 03:31:11;;;;;;;14.77;11.20;;;;;;;12.99;100.00;102139.97;5215221;28;20029;-67
2021/07/21 03:33:47;;;;;;;17.85;11.65;;;;;;;13.06;100.00;102149.06;5214749;28;20503;-67
2021/07/21 03:36:18;;;;;;;16.00;11.77;;;;;;;12.95;100.00;102146.41;5215257;28;20022;-67
2021/07/21 03:38:51;;;;;;;16.25;11.05;;;;;;;12.93;100.00;102156.22;5214847;28;20416;-67
2021/07/21 03:41:24;;;;;;;15.80;12.15;;;;;;;12.93;100.00;102152.75;5215474;28;20029;-67
2021/07/21 03:43:55;;;;;;;14.23;10.50;;;;;;;12.95;100.00;102154.28;5213895;28;20029;-67
2021/07/21 03:46:28;;;;;;;18.30;11.90;;;;;;;12.87;100.00;102154.03;5218499;28;20025;-67
2021/07/21 03:49:00;;;;;;;16.40;11.60;;;;;;;12.89;100.00;102152.97;5217546;28;20243;-67
2021/07/21 03:51:33;;;;;;;13.23;10.73;;;;;;;12.89;100.00;102152.97;5215155;28;20037;-67
2021/07/21 03:54:07;;;;;;;16.85;10.90;;;;;;;12.85;100.00;102151.53;5229730;28;20041;-67
2021/07/21 03:56:41;;;;;;;18.25;12.00;;;;;;;12.87;100.00;102157.50;5215523;28;20788;-67
2021/07/21 03:59:16;;;;;;;16.17;11.65;;;;;;;12.78;100.00;102144.19;5216193;28;20064;-66
2021/07/21 04:01:50;;;;;;;14.63;11.13;;;;;;;12.78;100.00;102147.66;5200346;28;20098;-67
2021/07/21 04:04:22;;;;;;;14.18;11.35;;;;;;;12.81;100.00;102150.06;5213213;28;20041;-67
2021/07/21 04:06:54;;;;;;;15.30;11.68;;;;;;;12.87;100.00;102149.59;5214172;28;20026;-66
2021/07/21 04:09:26;;;;;;;17.05;11.90;;;;;;;12.81;100.00;102143.97;5214266;28;20301;-67
2021/07/21 04:11:59;;;;;;;14.60;11.47;;;;;;;12.85;100.00;102148.06;5212027;28;20510;-66
2021/07/21 04:14:31;;;;;;;18.40;12.82;;;;;;;12.80;100.00;102144.91;5214337;28;20349;-67
2021/07/21 04:17:05;;;;;;;16.33;12.05;;;;;;;12.88;100.00;102145.19;5214260;28;20026;-67
2021/07/21 04:19:39;;;;;;;15.93;13.05;;;;;;;12.88;100.00;102151.28;5214973;28;20036;-67
2021/07/21 04:22:12;;;;;;;16.33;12.98;;;;;;;12.85;100.00;102151.53;5216541;28;20033;-67
2021/07/21 04:24:45;;;;;;;14.93;12.20;;;;;;;12.89;100.00;102162.66;5214393;28;20057;-67
2021/07/21 04:27:17;;;;;;;17.85;13.25;;;;;;;12.84;100.00;102163.00;5215178;28;20330;-67
2021/07/21 04:29:49;;;;;;;14.23;12.30;;;;;;;12.88;100.00;102159.19;5211975;28;20582;-67
2021/07/21 04:32:21;;;;;;;15.20;12.25;;;;;;;12.89;100.00;102154.75;5217069;28;20092;-67
2021/07/21 04:34:53;;;;;;;17.13;12.82;;;;;;;12.94;100.00;102172.84;5213112;28;20026;-66
2021/07/21 04:37:25;;;;;;;16.90;12.85;;;;;;;13.01;100.00;102172.25;5213614;28;20487;-67
2021/07/21 04:39:57;;;;;;;21.02;13.95;;;;;;;13.09;100.00;102174.31;5214698;28;20037;-67
2021/07/21 04:42:28;;;;;;;20.73;14.82;;;;;;;13.10;100.00;102173.38;5215982;28;20487;-67
2021/07/21 04:44:59;;;;;;;19.88;15.80;;;;;;;13.15;100.00;102176.50;5211941;28;20041;-67
2021/07/21 04:47:33;;;;;;;21.15;15.90;;;;;;;13.20;100.00;102179.63;5214963;28;20055;-67
2021/07/21 04:50:07;;;;;;;24.60;18.65;;;;;;;13.37;100.00;102174.00;5212132;28;20084;-67
2021/07/21 04:52:41;;;;;;;24.45;19.48;;;;;;;13.42;100.00;102185.97;5218190;28;20403;-67
2021/07/21 04:55:13;;;;;;;22.15;19.08;;;;;;;13.43;100.00;102191.09;5214151;28;20056;-67
2021/07/21 04:57:48;;;;;;;22.35;19.15;;;;;;;13.51;100.00;102185.25;5215092;28;20108;-67
2021/07/21 05:00:19;;;;;;;24.80;20.40;;;;;;;13.59;100.00;102183.69;5215209;28;20088;-68
2021/07/21 05:02:51;;;;;;;27.40;20.63;;;;;;;13.72;100.00;102185.44;5215538;28;20037;-67
2021/07/21 05:05:23;;;;;;;26.02;19.42;;;;;;;13.66;100.00;102194.63;5214193;28;20409;-67
2021/07/21 05:07:55;;;;;;;27.13;20.88;;;;;;;13.74;100.00;102194.88;5213122;28;20029;-67
2021/07/21 05:10:27;;;;;;;28.35;21.75;;;;;;;13.81;100.00;102198.72;5214155;28;20578;-67
2021/07/21 05:12:58;;;;;;;25.52;21.95;;;;;;;13.81;100.00;102201.34;5212114;28;20332;-67
2021/07/21 05:15:30;;;;;;;27.90;21.05;;;;;;;13.88;100.00;102199.91;5215406;28;20284;-67
2021/07/21 05:18:02;;;;;;;25.55;21.27;;;;;;;13.90;100.00;102194.50;5212393;28;20049;-67
2021/07/21 05:20:33;;;;;;;28.63;21.75;;;;;;;13.95;100.00;102202.09;5219258;28;20025;-67
2021/07/21 05:23:05;;;;;;;28.27;22.52;;;;;;;13.99;100.00;102203.53;5218554;28;20052;-67
2021/07/21 05:25:38;;;;;;;25.52;21.52;;;;;;;14.09;100.00;102205.34;5220418;28;20776;-67
2021/07/21 05:28:10;;;;;;;24.85;20.05;;;;;;;14.13;100.00;102211.19;5218421;28;20068;-67
2021/07/21 05:30:41;;;;;;;27.70;19.23;;;;;;;14.21;100.00;102213.25;5216591;28;20801;-67
2021/07/21 05:33:12;;;;;;;23.90;19.25;;;;;;;14.28;100.00;102212.63;5218017;28;20099;-67
2021/07/21 05:35:44;;;;;;;23.90;19.40;;;;;;;14.53;100.00;102211.53;5216085;28;20208;-67
2021/07/21 05:38:15;;;;;;;23.35;18.77;;;;;;;14.45;100.00;102215.72;5214749;28;20459;-67
2021/07/21 05:40:47;;;;;;;21.35;18.38;;;;;;;14.63;100.00;102218.75;5218378;28;20038;-67
2021/07/21 05:43:18;;;;;;;20.50;17.83;;;;;;;14.70;100.00;102206.69;5217625;28;20376;-67
2021/07/21 05:45:50;;;;;;;21.38;18.00;;;;;;;14.74;100.00;102216.91;5215266;28;20061;-68
2021/07/21 05:48:21;;;;;;;24.88;17.15;;;;;;;14.86;100.00;102208.97;5209449;28;20223;-68
2021/07/21 05:50:54;;;;;;;23.75;15.88;;;;;;;14.97;100.00;102216.84;5215735;28;20036;-67
2021/07/21 05:53:25;;;;;;;20.13;15.93;;;;;;;15.09;100.00;102221.13;5217907;28;20041;-67
2021/07/21 05:55:58;;;;;;;22.65;16.17;;;;;;;15.20;100.00;102215.78;5212472;28;20044;-68
2021/07/21 05:58:31;;;;;;;18.15;15.10;;;;;;;15.31;100.00;102222.81;5209289;28;20382;-67
2021/07/21 06:01:02;;;;;;;18.40;15.00;;;;;;;15.44;100.00;102222.63;5218186;28;20030;-67
2021/07/21 06:03:33;;;;;;;20.10;14.57;;;;;;;15.32;100.00;102217.41;5219876;28;20373;-68
2021/07/21 06:06:07;;;;;;;17.58;14.00;;;;;;;15.56;100.00;102221.59;5217754;28;20539;-68
2021/07/21 06:08:38;;;;;;;;;;;;;;;15.72;99.76;102223.81;5219034;28;20079;-68
2021/07/21 06:11:10;;;;;;;15.90;12.95;;;;;;;15.81;98.12;102221.25;5215781;28;19927;-67
2021/07/21 06:13:41;;;;;;;15.88;12.27;;;;;;;15.87;98.93;102226.97;5208342;28;20068;-68
2021/07/21 06:16:15;;;;;;;15.52;13.23;;;;;;;15.99;98.23;102225.94;5216663;28;20539;-68
2021/07/21 06:18:46;;;;;;;19.33;12.35;;;;;;;15.99;99.26;102233.84;5217857;28;20400;-68
2021/07/21 06:21:18;;;;;;;18.02;13.35;;;;;;;16.17;97.18;102226.13;5216613;28;20032;-68
2021/07/21 06:23:51;;;;;;;18.53;14.13;;;;;;;16.33;96.68;102228.28;5216570;28;20053;-68
2021/07/21 06:26:22;;;;;;;18.13;13.77;;;;;;;16.38;97.61;102234.00;5208499;28;20030;-68
2021/07/21 06:28:53;;;;;;;18.00;12.65;;;;;;;16.57;95.56;102227.94;5213604;28;20045;-68
2021/07/21 06:31:24;;;;;;;15.82;12.82;;;;;;;16.53;96.87;102230.84;5215273;28;20013;-68
2021/07/21 06:33:56;;;;;;;17.85;11.68;;;;;;;16.74;93.52;102233.47;5213551;28;20664;-67
2021/07/21 06:36:27;;;;;;;14.32;10.40;;;;;;;16.97;91.52;102226.09;5216393;28;20029;-67
2021/07/21 06:38:58;;;;;;;15.90;11.05;;;;;;;17.10;89.79;102228.47;5212202;28;20311;-67
2021/07/21 06:41:30;;;;;;;17.27;10.45;;;;;;;17.18;89.82;102233.06;5215538;28;20079;-67
2021/07/21 06:44:02;;;;;;;15.63;9.98;;;;;;;17.25;89.98;102234.19;5215788;28;20040;-67
2021/07/21 06:46:33;;;;;;;16.83;10.73;;;;;;;17.31;90.40;102238.91;5212621;28;20014;-68
2021/07/21 06:49:04;;;;;;;13.90;9.18;;;;;;;17.43;89.77;102240.44;5210973;28;20080;-68
2021/07/21 06:51:36;;;;;;;16.58;9.93;;;;;;;17.66;89.45;102246.28;5214483;28;20037;-67
2021/07/21 06:54:07;;;;;;;13.40;8.98;;;;;;;17.81;85.32;102254.66;5214617;28;20029;-67
2021/07/21 06:56:38;;;;;;;13.63;8.73;;;;;;;17.80;89.28;102252.13;5215492;28;20083;-67
2021/07/21 06:59:09;;;;;;;11.75;8.15;;;;;;;18.10;82.27;102257.19;5215601;28;20506;-67
2021/07/21 07:01:41;;;;;;;12.30;7.35;;;;;;;18.17;82.16;102254.81;5215999;28;20544;-68
2021/07/21 07:04:12;;;;;;;11.48;7.32;;;;;;;18.22;81.78;102257.84;5220378;28;20037;-68
2021/07/21 07:06:43;;;;;;;10.10;7.97;;;;;;;18.34;80.55;102254.06;5213118;28;20502;-68
2021/07/21 07:09:15;;;;;;;12.35;7.32;;;;;;;18.32;81.75;102263.13;5214374;28;20387;-68
2021/07/21 07:11:46;;;;;;;11.00;7.90;;;;;;;18.56;82.60;102259.94;5215872;28;20037;-68
2021/07/21 07:14:18;;;;;;;12.40;7.47;;;;;;;18.62;83.34;102262.00;5217880;28;20098;-68
2021/07/21 07:16:50;;;;;;;9.20;6.70;;;;;;;18.86;77.67;102269.44;5215902;28;20036;-68
2021/07/21 07:19:21;;;;;;;10.88;7.13;;;;;;;18.92;77.75;102266.19;5216132;28;20029;-68
2021/07/21 07:21:53;;;;;;;8.50;6.30;;;;;;;19.06;77.71;102257.69;5213301;28;20029;-68
2021/07/21 07:24:24;;;;;;;8.27;5.93;;;;;;;19.29;75.30;102267.88;5208961;28;20034;-68
2021/07/21 07:26:57;;;;;;;8.27;5.50;;;;;;;19.40;75.94;102262.31;5208867;28;20311;-68
2021/07/21 07:29:28;;;;;;;12.30;6.32;;;;;;;19.48;74.27;102272.19;5214308;28;20089;-68
2021/07/21 07:32:00;;;;;;;10.13;6.47;;;;;;;19.61;74.55;102269.94;5213152;28;20041;-68
2021/07/21 07:34:32;;;;;;;10.33;6.43;;;;;;;19.62;72.25;102272.50;5215548;28;20034;-68
2021/07/21 07:37:04;;;;;;;7.57;5.10;;;;;;;19.68;73.40;102263.88;5216756;28;20116;-68
2021/07/21 07:39:35;;;;;;;7.87;4.80;;;;;;;19.82;72.05;102264.31;5217372;28;20049;-68
2021/07/21 07:42:07;;;;;;;7.87;5.10;;;;;;;19.98;72.26;102272.41;5209709;28;20032;-68
2021/07/21 07:44:39;;;;;;;9.30;5.27;;;;;;;20.08;73.09;102280.28;5216177;28;20505;-70
2021/07/21 07:47:11;;;;;;;10.23;5.75;;;;;;;20.15;70.52;102271.50;5208640;28;20040;-70
2021/07/21 07:49:42;;;;;;;9.00;5.40;;;;;;;20.22;69.58;102271.69;5208926;28;20426;-69
2021/07/21 07:52:14;;;;;;;7.93;5.30;;;;;;;20.29;69.80;102274.56;5210968;28;20118;-72
2021/07/21 07:54:45;;;;;;;7.87;4.70;;;;;;;20.52;70.25;102281.00;5213018;28;20125;-69
2021/07/21 07:57:16;;;;;;;7.43;4.30;;;;;;;20.60;68.23;102272.22;5210926;28;20170;-68
2021/07/21 07:59:48;;;;;;;7.53;4.50;;;;;;;20.71;67.65;102285.22;5214245;28;20037;-68
2021/07/21 08:02:19;;;;;;;10.13;5.57;;;;;;;20.84;66.07;102276.81;5213865;28;20026;-68
2021/07/21 08:04:50;;;;;;;9.20;4.63;;;;;;;20.84;67.54;102276.81;5211186;28;20042;-68
2021/07/21 08:07:23;;;;;;;8.57;4.97;;;;;;;21.00;67.10;102276.00;5206161;28;20069;-68
2021/07/21 08:09:54;;;;;;;7.68;5.05;;;;;;;21.04;67.99;102269.34;5205200;28;20026;-68
2021/07/21 08:12:26;;;;;;;8.60;5.33;;;;;;;21.06;64.27;102275.31;5206855;28;20048;-68
2021/07/21 08:14:57;;;;;;;8.53;5.17;;;;;;;21.24;65.12;102267.19;5211632;28;20030;-70
2021/07/21 08:17:29;;;;;;;7.47;5.10;;;;;;;21.30;65.67;102275.38;5228384;28;20021;-68
2021/07/21 08:20:00;;;;;;;5.77;4.43;;;;;;;21.41;65.35;102284.06;5206543;28;21352;-67
2021/07/21 08:22:38;;;;;;;9.83;5.23;;;;;;;21.37;63.26;102276.41;5206298;28;20116;-68
2021/07/21 08:25:15;;;;;;;7.45;4.88;;;;;;;21.60;64.18;102283.72;5209482;28;20030;-68
2021/07/21 08:27:48;;;;;;;8.90;4.88;;;;;;;21.70;63.10;102286.19;5198365;28;20863;-68
2021/07/21 08:30:19;;;;;;;9.52;5.47;;;;;;;21.73;62.81;102281.38;5205355;28;20033;-68
2021/07/21 08:32:53;;;;;;;10.83;5.90;;;;;;;21.82;61.05;102284.84;5205714;28;20033;-67
2021/07/21 08:35:28;;;;;;;7.75;5.90;;;;;;;21.93;61.82;102281.00;5206233;28;20044;-68
2021/07/21 08:38:02;;;;;;;10.32;5.63;;;;;;;21.99;62.06;102280.34;5210656;28;20140;-67
2021/07/21 08:40:35;;;;;;;10.20;6.10;;;;;;;22.01;62.19;102281.84;5216453;28;20041;-68
2021/07/21 08:43:09;;;;;;;7.47;5.32;;;;;;;22.19;61.34;102278.13;5220551;28;20029;-68
2021/07/21 08:45:41;;;;;;;7.55;5.10;;;;;;;22.24;62.82;102281.97;5213985;28;20495;-68
2021/07/21 08:48:13;;;;;;;7.03;5.17;;;;;;;22.52;61.44;102285.00;5206260;28;20025;-67
2021/07/21 08:50:46;;;;;;;10.18;5.97;;;;;;;22.41;58.68;102282.72;5206438;28;20026;-68
2021/07/21 08:53:19;;;;;;;6.85;5.00;;;;;;;22.39;58.99;102279.41;5210949;28;20040;-68
2021/07/21 08:55:53;;;;;;;7.75;4.68;;;;;;;22.61;58.56;102267.09;5214717;28;20033;-68
2021/07/21 08:58:25;;;;;;;9.20;6.03;;;;;;;22.74;59.33;102270.03;5219440;28;20026;-67
2021/07/21 09:00:57;;;;;;;8.75;5.57;;;;;;;22.79;58.27;102280.19;5218399;28;20036;-68
2021/07/21 09:03:30;;;;;;;9.30;5.10;;;;;;;22.91;58.46;102278.81;5215331;28;20025;-68
2021/07/21 09:06:01;;;;;;;9.55;6.00;;;;;;;22.96;59.94;102273.78;5215728;28;20030;-68
2021/07/21 09:08:34;;;;;;;11.77;5.67;;;;;;;23.06;57.71;102281.56;5218202;28;20428;-67
2021/07/21 09:11:05;;;;;;;7.97;5.90;;;;;;;23.13;57.73;102274.50;5213474;28;20395;-68
2021/07/21 09:13:38;;;;;;;7.10;5.23;;;;;;;23.23;57.64;102283.13;5212711;28;20265;-67
2021/07/21 09:16:11;;;;;;;10.05;6.00;;;;;;;23.40;58.31;102278.47;5216949;28;20029;-68
2021/07/21 09:18:51;;;;;;;11.57;7.25;;;;;;;23.29;58.85;102286.91;5218123;28;20039;-68
2021/07/21 09:21:23;;;;;;;8.07;6.03;;;;;;;23.45;57.11;102278.78;5217232;28;20510;-68
2021/07/21 09:24:00;;;;;;;7.68;5.65;;;;;;;23.54;56.23;102275.00;5217272;28;20061;-68
2021/07/21 09:26:39;;;;;;;9.57;5.07;;;;;;;23.73;55.16;102273.69;5218448;28;20031;-68
2021/07/21 09:29:14;;;;;;;8.65;5.32;;;;;;;23.53;55.67;102278.69;5214950;28;20052;-68
2021/07/21 09:31:48;;;;;;;7.45;5.70;;;;;;;23.79;56.98;102282.84;5216062;28;20164;-68
2021/07/21 09:34:23;;;;;;;10.68;6.07;;;;;;;23.92;56.48;102282.19;5215695;28;20044;-68
2021/07/21 09:37:09;;;;;;;7.72;5.85;;;;;;;24.14;57.15;102280.47;5211892;28;20111;-68
2021/07/21 09:39:44;;;;;;;7.53;5.65;;;;;;;24.03;54.95;102285.25;5209639;28;20159;-68
2021/07/21 09:42:17;;;;;;;7.32;5.03;;;;;;;23.83;54.69;102277.94;5211384;28;20442;-68
2021/07/21 09:44:48;;;;;;;8.65;5.93;;;;;;;23.94;53.85;102280.16;5216019;28;20299;-68
2021/07/21 09:47:22;;;;;;;7.77;5.70;;;;;;;23.98;54.86;102274.28;5216975;28;20052;-68
2021/07/21 09:50:24;;;;;;;7.78;5.40;;;;;;;24.32;55.89;102283.59;5219048;28;20030;-67
2021/07/21 09:53:05;;;;;;;7.18;5.70;;;;;;;24.26;56.64;102274.44;5216774;28;20065;-68
2021/07/21 09:55:37;;;;;;;8.38;6.20;;;;;;;24.37;54.10;102280.34;5216883;28;20055;-68
2021/07/21 09:58:19;;;;;;;9.80;6.22;;;;;;;24.58;53.90;102279.59;5219717;28;20022;-68
2021/07/21 10:00:50;;;;;;;8.48;5.15;;;;;;;24.58;53.35;102277.75;5217887;28;20398;-68
2021/07/21 10:03:25;;;;;;;7.37;5.60;;;;;;;24.76;50.87;102280.84;5218077;28;20112;-68
2021/07/21 10:05:57;;;;;;;8.35;5.88;;;;;;;24.94;56.18;102277.75;5215813;28;20095;-68
2021/07/21 10:08:34;;;;;;;8.68;5.70;;;;;;;24.94;54.43;102279.59;5216332;28;20061;-68
2021/07/21 10:11:31;;;;;;;8.55;5.75;;;;;;;25.21;53.35;102275.34;5214953;28;20128;-68
2021/07/21 10:14:03;;;;;;;8.43;5.95;;;;;;;24.99;51.38;102269.94;5215147;28;20040;-67
2021/07/21 10:16:36;;;;;;;8.73;6.27;;;;;;;25.11;52.72;102269.47;5214693;28;20681;-68
2021/07/21 10:19:19;;;;;;;9.18;6.53;;;;;;;25.06;51.34;102267.34;5215607;28;20028;-68
2021/07/21 10:21:53;;;;;;;11.95;7.57;;;;;;;24.91;50.80;102271.94;5214612;28;20395;-68
2021/07/21 10:24:27;;;;;;;9.38;5.93;;;;;;;25.04;50.34;102268.53;5214590;28;20026;-68
2021/07/21 10:27:00;;;;;;;7.85;6.47;;;;;;;25.18;50.36;102268.50;5215999;28;20034;-68
2021/07/21 10:29:31;;;;;;;;;;;;;;;25.52;51.14;102266.94;5211223;28;20044;-68
2021/07/21 10:32:03;;;;;;;8.40;6.63;;;;;;;25.09;49.73;102266.97;5208438;28;19921;-68
2021/07/21 10:34:34;;;;;;;10.37;6.13;;;;;;;25.37;49.30;102258.97;5204096;28;20036;-68
2021/07/21 10:37:06;;;;;;;11.65;6.40;;;;;;;25.24;48.83;102266.94;5215658;28;20022;-67
2021/07/21 10:39:38;;;;;;;8.17;5.47;;;;;;;25.08;48.61;102268.00;5207521;28;20143;-68
2021/07/21 10:42:11;;;;;;;;;;;;;;;25.50;49.80;102266.31;5211110;28;20029;-68
2021/07/21 10:44:54;;;;;;;8.35;5.75;;;;;;;25.14;49.63;102266.41;5213732;28;20464;-68
2021/07/21 10:47:28;;;;;;;7.63;5.78;;;;;;;25.25;48.53;102265.91;5215072;28;20044;-68
2021/07/21 10:50:10;;;;;;;6.50;5.70;;;;;;;25.56;48.02;102253.97;5213475;28;20491;-68
2021/07/21 10:52:56;;;;;;;8.32;5.18;;;;;;;25.37;47.88;102268.88;5208339;28;20033;-68
2021/07/21 10:55:30;;;;;;;7.45;5.50;;;;;;;25.53;49.25;102265.06;5202782;28;20025;-68
2021/07/21 11:00:59;;;;;;;8.52;6.53;;;;;;;25.63;45.89;102260.22;5209382;28;20336;-68
2021/07/21 11:03:33;;;;;;;8.93;6.73;;;;;;;25.52;46.85;102256.22;5211532;28;20029;-67
2021/07/21 11:06:10;;;;;;;8.57;6.22;;;;;;;25.88;46.42;102258.75;5215289;28;20037;-69
2021/07/21 11:08:48;;;;;;;8.25;6.78;;;;;;;25.76;47.32;102254.94;5212888;28;20057;-68
2021/07/21 11:11:21;;;;;;;8.77;6.60;;;;;;;25.61;45.30;102254.19;5211464;28;20033;-68
2021/07/21 11:14:00;;;;;;;8.93;7.13;;;;;;;25.77;46.63;102251.22;5215102;28;20025;-68
2021/07/21 11:16:50;;;;;;;9.55;6.50;;;;;;;26.14;45.97;102249.19;5205824;28;20071;-68
2021/07/21 11:19:24;;;;;;;8.40;6.50;;;;;;;26.11;46.15;102250.41;5214149;28;20024;-69
2021/07/21 11:22:07;;;;;;;9.82;6.88;;;;;;;26.14;45.55;102252.72;5210703;28;20022;-68
2021/07/21 11:25:01;;;;;;;9.63;6.60;;;;;;;26.46;46.01;102244.19;5211477;28;20018;-68
2021/07/21 11:27:53;;;;;;;13.38;7.25;;;;;;;26.34;45.46;102250.09;5211750;28;20793;-68
2021/07/21 11:30:55;;;;;;;9.73;7.80;;;;;;;26.02;42.74;102248.09;5212155;28;20025;-69
2021/07/21 11:34:01;;;;;;;7.43;6.28;;;;;;;26.33;43.18;102240.41;5210222;28;20354;-69
2021/07/21 11:36:38;;;;;;;9.50;6.63;;;;;;;26.20;44.72;102245.69;5213331;28;20090;-69
2021/07/21 11:39:34;;;;;;;10.00;7.22;;;;;;;26.26;43.50;102242.22;5209769;28;20057;-69
2021/07/21 11:42:08;;;;;;;9.13;6.78;;;;;;;26.37;44.01;102244.34;5210117;28;20025;-69
2021/07/21 11:44:41;;;;;;;8.57;6.90;;;;;;;26.21;41.98;102247.34;5212534;28;20030;-69
2021/07/21 11:47:14;;;;;;;10.18;6.88;;;;;;;25.99;43.90;102245.78;5213059;28;20483;-69
2021/07/21 11:49:51;;;;;;;9.40;7.45;;;;;;;25.76;44.55;102244.22;5214653;28;20403;-69